sensor_id;sensor_type;location;lat;lon;timestamp;temperature;humidity
31809;DHT22;18379;48.208;-1.518;2023-02-15T00:06:06;6.50;99.90
31809;DHT22;18379;48.208;-1.518;2023-02-15T00:11:11;6.40;99.90
31809;DHT22;18379;48.208;-1.518;2023-02-15T00:16:13;6.40;99.90
31809;DHT22;18379;48.208;-1.518;2023-02-15T00:21:14;6.40;99.90
31809;DHT22;18379;48.208;-1.518;2023-02-15T00:26:14;6.40;99.90
31809;DHT22;18379;48.208;-1.518;2023-02-15T00:31:15;6.40;99.90
31809;DHT22;18379;48.208;-1.518;2023-02-15T00:36:16;6.40;99.90
31809;DHT22;18379;48.208;-1.518;2023-02-15T00:41:17;6.40;99.90
31809;DHT22;18379;48.208;-1.518;2023-02-15T00:46:18;6.30;99.90
31809;DHT22;18379;48.208;-1.518;2023-02-15T00:51:20;6.30;99.90
31809;DHT22;18379;48.208;-1.518;2023-02-15T00:56:20;6.20;99.90
31809;DHT22;18379;48.208;-1.518;2023-02-15T01:01:22;6.10;99.90
31809;DHT22;18379;48.208;-1.518;2023-02-15T01:06:24;6.00;99.90
31809;DHT22;18379;48.208;-1.518;2023-02-15T01:11:24;5.90;99.90
31809;DHT22;18379;48.208;-1.518;2023-02-15T01:16:27;5.90;99.90
31809;DHT22;18379;48.208;-1.518;2023-02-15T01:21:28;5.90;99.90
31809;DHT22;18379;48.208;-1.518;2023-02-15T01:26:29;5.80;99.90
31809;DHT22;18379;48.208;-1.518;2023-02-15T01:31:33;5.80;99.90
31809;DHT22;18379;48.208;-1.518;2023-02-15T01:36:34;5.80;99.90
31809;DHT22;18379;48.208;-1.518;2023-02-15T01:41:35;5.80;99.90
31809;DHT22;18379;48.208;-1.518;2023-02-15T01:46:46;5.80;99.90
31809;DHT22;18379;48.208;-1.518;2023-02-15T01:51:49;5.80;99.90
31809;DHT22;18379;48.208;-1.518;2023-02-15T01:56:50;5.80;99.90
31809;DHT22;18379;48.208;-1.518;2023-02-15T02:01:53;5.80;99.90
31809;DHT22;18379;48.208;-1.518;2023-02-15T02:06:57;5.80;99.90
31809;DHT22;18379;48.208;-1.518;2023-02-15T02:11:58;5.80;99.90
31809;DHT22;18379;48.208;-1.518;2023-02-15T02:17:12;5.80;99.90
31809;DHT22;18379;48.208;-1.518;2023-02-15T02:48:49;5.90;99.90
31809;DHT22;18379;48.208;-1.518;2023-02-15T02:53:52;5.80;99.90
31809;DHT22;18379;48.208;-1.518;2023-02-15T02:59:19;5.80;99.90
31809;DHT22;18379;48.208;-1.518;2023-02-15T03:04:32;5.70;99.90
31809;DHT22;18379;48.208;-1.518;2023-02-15T03:09:39;5.70;99.90
31809;DHT22;18379;48.208;-1.518;2023-02-15T03:14:44;5.60;99.90
31809;DHT22;18379;48.208;-1.518;2023-02-15T03:19:48;5.50;99.90
31809;DHT22;18379;48.208;-1.518;2023-02-15T03:25:02;5.50;99.90
31809;DHT22;18379;48.208;-1.518;2023-02-15T03:30:05;5.50;99.90
31809;DHT22;18379;48.208;-1.518;2023-02-15T03:35:07;5.50;99.90
31809;DHT22;18379;48.208;-1.518;2023-02-15T03:40:19;5.50;99.90
31809;DHT22;18379;48.208;-1.518;2023-02-15T03:45:40;5.40;99.90
31809;DHT22;18379;48.208;-1.518;2023-02-15T03:51:05;5.40;99.90
31809;DHT22;18379;48.208;-1.518;2023-02-15T03:56:26;5.50;99.90
31809;DHT22;18379;48.208;-1.518;2023-02-15T04:01:47;5.50;99.90
31809;DHT22;18379;48.208;-1.518;2023-02-15T04:06:58;5.40;99.90
31809;DHT22;18379;48.208;-1.518;2023-02-15T04:11:58;5.40;99.90
31809;DHT22;18379;48.208;-1.518;2023-02-15T04:16:59;5.40;99.90
31809;DHT22;18379;48.208;-1.518;2023-02-15T04:22:00;5.40;99.90
31809;DHT22;18379;48.208;-1.518;2023-02-15T04:27:19;5.30;99.90
31809;DHT22;18379;48.208;-1.518;2023-02-15T04:32:20;5.30;99.90
31809;DHT22;18379;48.208;-1.518;2023-02-15T04:37:21;5.30;99.90
31809;DHT22;18379;48.208;-1.518;2023-02-15T04:42:21;5.20;99.90
31809;DHT22;18379;48.208;-1.518;2023-02-15T04:47:28;5.10;99.90
31809;DHT22;18379;48.208;-1.518;2023-02-15T04:52:29;5.10;99.90
31809;DHT22;18379;48.208;-1.518;2023-02-15T04:57:30;5.00;99.90
31809;DHT22;18379;48.208;-1.518;2023-02-15T05:02:31;4.90;99.90
31809;DHT22;18379;48.208;-1.518;2023-02-15T05:07:32;4.80;99.90
31809;DHT22;18379;48.208;-1.518;2023-02-15T05:12:33;4.80;99.90
31809;DHT22;18379;48.208;-1.518;2023-02-15T05:17:33;4.90;99.90
31809;DHT22;18379;48.208;-1.518;2023-02-15T05:22:34;4.90;99.90
31809;DHT22;18379;48.208;-1.518;2023-02-15T05:27:35;4.90;99.90
31809;DHT22;18379;48.208;-1.518;2023-02-15T05:32:54;4.90;99.90
31809;DHT22;18379;48.208;-1.518;2023-02-15T05:37:55;4.90;99.90
31809;DHT22;18379;48.208;-1.518;2023-02-15T05:42:56;4.90;99.90
31809;DHT22;18379;48.208;-1.518;2023-02-15T05:47:58;5.00;99.90
31809;DHT22;18379;48.208;-1.518;2023-02-15T05:52:59;5.10;99.90
31809;DHT22;18379;48.208;-1.518;2023-02-15T05:57:59;5.10;99.90
31809;DHT22;18379;48.208;-1.518;2023-02-15T06:03:03;5.20;99.90
31809;DHT22;18379;48.208;-1.518;2023-02-15T06:08:04;5.20;99.90
31809;DHT22;18379;48.208;-1.518;2023-02-15T06:13:05;5.20;99.90
31809;DHT22;18379;48.208;-1.518;2023-02-15T06:18:06;5.20;99.90
31809;DHT22;18379;48.208;-1.518;2023-02-15T06:23:07;5.20;99.90
31809;DHT22;18379;48.208;-1.518;2023-02-15T06:28:08;5.20;99.90
31809;DHT22;18379;48.208;-1.518;2023-02-15T06:33:09;5.20;99.90
31809;DHT22;18379;48.208;-1.518;2023-02-15T06:38:09;5.10;99.90
31809;DHT22;18379;48.208;-1.518;2023-02-15T06:43:10;5.10;99.90
31809;DHT22;18379;48.208;-1.518;2023-02-15T06:48:11;4.90;99.90
31809;DHT22;18379;48.208;-1.518;2023-02-15T06:53:12;4.90;99.90
31809;DHT22;18379;48.208;-1.518;2023-02-15T06:58:12;4.80;99.90
31809;DHT22;18379;48.208;-1.518;2023-02-15T07:03:13;4.70;99.90
31809;DHT22;18379;48.208;-1.518;2023-02-15T07:08:15;4.60;99.90
31809;DHT22;18379;48.208;-1.518;2023-02-15T07:13:16;4.60;99.90
31809;DHT22;18379;48.208;-1.518;2023-02-15T07:18:17;4.50;99.90
31809;DHT22;18379;48.208;-1.518;2023-02-15T07:23:17;4.50;99.90
31809;DHT22;18379;48.208;-1.518;2023-02-15T07:28:18;4.40;99.90
31809;DHT22;18379;48.208;-1.518;2023-02-15T07:33:19;4.40;99.90
31809;DHT22;18379;48.208;-1.518;2023-02-15T07:38:35;4.40;99.90
31809;DHT22;18379;48.208;-1.518;2023-02-15T07:43:38;4.30;99.90
31809;DHT22;18379;48.208;-1.518;2023-02-15T07:48:40;4.30;99.90
31809;DHT22;18379;48.208;-1.518;2023-02-15T07:53:42;4.30;99.90
31809;DHT22;18379;48.208;-1.518;2023-02-15T07:58:43;4.50;99.90
31809;DHT22;18379;48.208;-1.518;2023-02-15T08:03:54;4.50;99.90
31809;DHT22;18379;48.208;-1.518;2023-02-15T08:08:56;4.50;99.90
31809;DHT22;18379;48.208;-1.518;2023-02-15T08:14:03;4.60;99.90
31809;DHT22;18379;48.208;-1.518;2023-02-15T08:19:07;4.80;99.90
31809;DHT22;18379;48.208;-1.518;2023-02-15T08:24:09;5.00;99.90
31809;DHT22;18379;48.208;-1.518;2023-02-15T08:29:12;5.20;99.90
31809;DHT22;18379;48.208;-1.518;2023-02-15T08:34:17;5.40;99.90
31809;DHT22;18379;48.208;-1.518;2023-02-15T08:39:18;5.60;99.90
31809;DHT22;18379;48.208;-1.518;2023-02-15T08:44:19;5.90;99.90
31809;DHT22;18379;48.208;-1.518;2023-02-15T08:49:21;6.10;99.90
31809;DHT22;18379;48.208;-1.518;2023-02-15T08:54:22;6.40;99.90
31809;DHT22;18379;48.208;-1.518;2023-02-15T08:59:23;6.70;99.90
31809;DHT22;18379;48.208;-1.518;2023-02-15T09:04:25;7.10;99.90
31809;DHT22;18379;48.208;-1.518;2023-02-15T09:09:26;7.30;99.90
31809;DHT22;18379;48.208;-1.518;2023-02-15T09:14:27;7.60;99.90
31809;DHT22;18379;48.208;-1.518;2023-02-15T09:19:27;7.80;99.90
31809;DHT22;18379;48.208;-1.518;2023-02-15T09:24:32;7.90;99.90
31809;DHT22;18379;48.208;-1.518;2023-02-15T09:29:34;8.00;99.90
31809;DHT22;18379;48.208;-1.518;2023-02-15T09:34:35;8.10;99.90
31809;DHT22;18379;48.208;-1.518;2023-02-15T09:39:37;8.30;99.90
31809;DHT22;18379;48.208;-1.518;2023-02-15T10:11:17;9.20;99.90
31809;DHT22;18379;48.208;-1.518;2023-02-15T10:22:20;9.60;99.90
31809;DHT22;18379;48.208;-1.518;2023-02-15T10:27:26;9.80;99.90
31809;DHT22;18379;48.208;-1.518;2023-02-15T10:32:34;9.90;99.90
31809;DHT22;18379;48.208;-1.518;2023-02-15T10:43:47;10.40;99.90
31809;DHT22;18379;48.208;-1.518;2023-02-15T10:49:33;10.70;99.90
31809;DHT22;18379;48.208;-1.518;2023-02-15T11:00:07;11.20;99.90
31809;DHT22;18379;48.208;-1.518;2023-02-15T11:21:20;12.30;99.90
31809;DHT22;18379;48.208;-1.518;2023-02-15T11:31:47;12.50;99.90
31809;DHT22;18379;48.208;-1.518;2023-02-15T11:36:51;12.70;99.90
31809;DHT22;18379;48.208;-1.518;2023-02-15T11:41:56;12.90;99.90
31809;DHT22;18379;48.208;-1.518;2023-02-15T11:46:58;13.10;99.90
31809;DHT22;18379;48.208;-1.518;2023-02-15T11:52:02;13.10;99.90
31809;DHT22;18379;48.208;-1.518;2023-02-15T12:02:21;13.30;99.90
31809;DHT22;18379;48.208;-1.518;2023-02-15T12:07:34;13.70;99.90
31809;DHT22;18379;48.208;-1.518;2023-02-15T12:12:37;14.00;99.90
31809;DHT22;18379;48.208;-1.518;2023-02-15T12:17:50;14.20;99.90
31809;DHT22;18379;48.208;-1.518;2023-02-15T12:22:59;14.30;99.90
31809;DHT22;18379;48.208;-1.518;2023-02-15T12:28:04;14.30;99.90
31809;DHT22;18379;48.208;-1.518;2023-02-15T12:33:27;14.50;99.90
31809;DHT22;18379;48.208;-1.518;2023-02-15T12:38:30;14.60;99.90
31809;DHT22;18379;48.208;-1.518;2023-02-15T12:43:40;14.80;99.90
31809;DHT22;18379;48.208;-1.518;2023-02-15T12:48:41;14.80;99.90
31809;DHT22;18379;48.208;-1.518;2023-02-15T12:53:42;15.10;99.90
31809;DHT22;18379;48.208;-1.518;2023-02-15T12:58:43;15.30;99.90
31809;DHT22;18379;48.208;-1.518;2023-02-15T13:03:55;15.40;99.90
31809;DHT22;18379;48.208;-1.518;2023-02-15T13:09:25;15.50;99.90
31809;DHT22;18379;48.208;-1.518;2023-02-15T13:14:46;15.60;99.90
31809;DHT22;18379;48.208;-1.518;2023-02-15T13:20:02;15.80;99.90
31809;DHT22;18379;48.208;-1.518;2023-02-15T13:25:26;15.90;99.90
31809;DHT22;18379;48.208;-1.518;2023-02-15T13:30:42;16.00;99.90
31809;DHT22;18379;48.208;-1.518;2023-02-15T13:35:50;16.00;99.90
31809;DHT22;18379;48.208;-1.518;2023-02-15T13:41:04;16.10;99.90
31809;DHT22;18379;48.208;-1.518;2023-02-15T13:51:41;16.20;99.90
31809;DHT22;18379;48.208;-1.518;2023-02-15T13:57:13;16.60;99.90
31809;DHT22;18379;48.208;-1.518;2023-02-15T14:24:39;17.50;99.90
31809;DHT22;18379;48.208;-1.518;2023-02-15T14:29:57;18.20;99.90
31809;DHT22;18379;48.208;-1.518;2023-02-15T14:35:00;18.40;99.90
31809;DHT22;18379;48.208;-1.518;2023-02-15T15:12:36;19.60;99.90
31809;DHT22;18379;48.208;-1.518;2023-02-15T15:22:41;19.20;99.90
31809;DHT22;18379;48.208;-1.518;2023-02-15T15:27:45;19.70;99.90
31809;DHT22;18379;48.208;-1.518;2023-02-15T15:48:39;19.10;99.90
31809;DHT22;18379;48.208;-1.518;2023-02-15T15:53:45;18.70;99.90
31809;DHT22;18379;48.208;-1.518;2023-02-15T15:59:01;18.70;99.90
31809;DHT22;18379;48.208;-1.518;2023-02-15T16:04:02;18.20;99.90
31809;DHT22;18379;48.208;-1.518;2023-02-15T16:09:20;18.10;99.90
31809;DHT22;18379;48.208;-1.518;2023-02-15T16:19:37;17.80;99.90
31809;DHT22;18379;48.208;-1.518;2023-02-15T16:30:32;17.50;99.90
31809;DHT22;18379;48.208;-1.518;2023-02-15T16:35:36;17.30;99.90
31809;DHT22;18379;48.208;-1.518;2023-02-15T16:40:39;16.90;99.90
31809;DHT22;18379;48.208;-1.518;2023-02-15T16:45:41;16.50;99.90
31809;DHT22;18379;48.208;-1.518;2023-02-15T16:50:50;15.90;99.90
31809;DHT22;18379;48.208;-1.518;2023-02-15T16:55:59;15.40;99.90
31809;DHT22;18379;48.208;-1.518;2023-02-15T17:01:01;14.90;99.90
31809;DHT22;18379;48.208;-1.518;2023-02-15T17:06:03;14.60;99.90
31809;DHT22;18379;48.208;-1.518;2023-02-15T17:22:02;13.80;99.90
31809;DHT22;18379;48.208;-1.518;2023-02-15T17:27:23;13.60;99.90
31809;DHT22;18379;48.208;-1.518;2023-02-15T17:32:27;13.30;99.90
31809;DHT22;18379;48.208;-1.518;2023-02-15T17:42:38;12.90;99.90
31809;DHT22;18379;48.208;-1.518;2023-02-15T17:47:39;12.70;99.90
31809;DHT22;18379;48.208;-1.518;2023-02-15T17:52:40;12.70;99.90
31809;DHT22;18379;48.208;-1.518;2023-02-15T17:57:41;12.60;99.90
31809;DHT22;18379;48.208;-1.518;2023-02-15T18:02:42;12.50;99.90
31809;DHT22;18379;48.208;-1.518;2023-02-15T18:08:25;12.40;99.90
31809;DHT22;18379;48.208;-1.518;2023-02-15T18:13:54;12.30;99.90
31809;DHT22;18379;48.208;-1.518;2023-02-15T18:19:03;12.20;99.90
31809;DHT22;18379;48.208;-1.518;2023-02-15T18:24:32;12.10;99.90
31809;DHT22;18379;48.208;-1.518;2023-02-15T18:29:33;12.00;99.90
31809;DHT22;18379;48.208;-1.518;2023-02-15T18:34:42;12.00;99.90
31809;DHT22;18379;48.208;-1.518;2023-02-15T18:40:00;12.00;99.90
31809;DHT22;18379;48.208;-1.518;2023-02-15T18:45:25;11.90;99.90
31809;DHT22;18379;48.208;-1.518;2023-02-15T18:50:33;11.90;99.90
31809;DHT22;18379;48.208;-1.518;2023-02-15T18:55:36;12.00;99.90
31809;DHT22;18379;48.208;-1.518;2023-02-15T19:00:53;11.90;99.90
31809;DHT22;18379;48.208;-1.518;2023-02-15T19:06:24;12.00;99.90
31809;DHT22;18379;48.208;-1.518;2023-02-15T19:11:37;12.00;99.90
31809;DHT22;18379;48.208;-1.518;2023-02-15T19:16:40;11.90;99.90
31809;DHT22;18379;48.208;-1.518;2023-02-15T19:21:48;11.90;99.90
31809;DHT22;18379;48.208;-1.518;2023-02-15T19:26:52;11.80;99.90
31809;DHT22;18379;48.208;-1.518;2023-02-15T19:32:08;11.70;99.90
31809;DHT22;18379;48.208;-1.518;2023-02-15T19:37:30;11.50;99.90
31809;DHT22;18379;48.208;-1.518;2023-02-15T19:42:32;11.40;99.90
31809;DHT22;18379;48.208;-1.518;2023-02-15T19:47:34;11.40;99.90
31809;DHT22;18379;48.208;-1.518;2023-02-15T19:52:35;11.50;99.90
31809;DHT22;18379;48.208;-1.518;2023-02-15T19:57:35;11.50;99.90
31809;DHT22;18379;48.208;-1.518;2023-02-15T20:02:36;11.50;99.90
31809;DHT22;18379;48.208;-1.518;2023-02-15T20:07:37;11.50;99.90
31809;DHT22;18379;48.208;-1.518;2023-02-15T20:12:38;11.50;99.90
31809;DHT22;18379;48.208;-1.518;2023-02-15T20:17:39;11.50;99.90
31809;DHT22;18379;48.208;-1.518;2023-02-15T20:22:41;11.60;99.90
31809;DHT22;18379;48.208;-1.518;2023-02-15T20:27:43;11.70;99.90
31809;DHT22;18379;48.208;-1.518;2023-02-15T20:32:45;11.60;99.90
31809;DHT22;18379;48.208;-1.518;2023-02-15T20:37:48;11.60;99.90
31809;DHT22;18379;48.208;-1.518;2023-02-15T20:42:51;11.60;99.90
31809;DHT22;18379;48.208;-1.518;2023-02-15T20:47:53;11.70;99.90
31809;DHT22;18379;48.208;-1.518;2023-02-15T20:52:56;11.70;99.90
31809;DHT22;18379;48.208;-1.518;2023-02-15T20:57:58;11.70;99.90
31809;DHT22;18379;48.208;-1.518;2023-02-15T21:03:00;11.70;99.90
31809;DHT22;18379;48.208;-1.518;2023-02-15T21:08:05;11.70;99.90
31809;DHT22;18379;48.208;-1.518;2023-02-15T21:13:23;11.70;99.90
31809;DHT22;18379;48.208;-1.518;2023-02-15T21:18:32;11.60;99.90
31809;DHT22;18379;48.208;-1.518;2023-02-15T21:23:42;11.50;99.90
31809;DHT22;18379;48.208;-1.518;2023-02-15T21:28:43;11.40;99.90
31809;DHT22;18379;48.208;-1.518;2023-02-15T21:33:44;11.30;99.90
31809;DHT22;18379;48.208;-1.518;2023-02-15T21:38:52;11.20;99.90
31809;DHT22;18379;48.208;-1.518;2023-02-15T21:43:54;11.20;99.90
31809;DHT22;18379;48.208;-1.518;2023-02-15T21:49:13;11.10;99.90
31809;DHT22;18379;48.208;-1.518;2023-02-15T21:54:16;11.10;99.90
31809;DHT22;18379;48.208;-1.518;2023-02-15T21:59:19;11.00;99.90
31809;DHT22;18379;48.208;-1.518;2023-02-15T22:04:26;10.90;99.90
31809;DHT22;18379;48.208;-1.518;2023-02-15T22:09:30;10.70;99.90
31809;DHT22;18379;48.208;-1.518;2023-02-15T22:14:36;10.60;99.90
31809;DHT22;18379;48.208;-1.518;2023-02-15T22:19:38;10.50;99.90
31809;DHT22;18379;48.208;-1.518;2023-02-15T22:24:39;10.50;99.90
31809;DHT22;18379;48.208;-1.518;2023-02-15T22:29:40;10.40;99.90
31809;DHT22;18379;48.208;-1.518;2023-02-15T22:34:41;10.30;99.90
31809;DHT22;18379;48.208;-1.518;2023-02-15T22:39:42;10.20;99.90
31809;DHT22;18379;48.208;-1.518;2023-02-15T22:44:42;10.10;99.90
31809;DHT22;18379;48.208;-1.518;2023-02-15T22:49:43;10.10;99.90
31809;DHT22;18379;48.208;-1.518;2023-02-15T22:54:44;10.10;99.90
31809;DHT22;18379;48.208;-1.518;2023-02-15T22:59:45;10.10;99.90
31809;DHT22;18379;48.208;-1.518;2023-02-15T23:04:47;10.10;99.90
31809;DHT22;18379;48.208;-1.518;2023-02-15T23:09:48;10.20;99.90
31809;DHT22;18379;48.208;-1.518;2023-02-15T23:14:48;10.20;99.90
31809;DHT22;18379;48.208;-1.518;2023-02-15T23:19:49;10.30;99.90
31809;DHT22;18379;48.208;-1.518;2023-02-15T23:24:51;10.30;99.90
31809;DHT22;18379;48.208;-1.518;2023-02-15T23:29:52;10.30;99.90
31809;DHT22;18379;48.208;-1.518;2023-02-15T23:34:53;10.30;99.90
31809;DHT22;18379;48.208;-1.518;2023-02-15T23:39:54;10.30;99.90
31809;DHT22;18379;48.208;-1.518;2023-02-15T23:45:22;10.30;99.90
31809;DHT22;18379;48.208;-1.518;2023-02-15T23:50:28;10.30;99.90
31809;DHT22;18379;48.208;-1.518;2023-02-15T23:55:37;10.30;99.90
